Terminal Aerodrome Forecast
Issued by NWS Quad Cities IA IL

Home | Current Version | Previous Version | Text Only | Print | Product List | Glossary On
Versions: 1 2 3 4 5 6 7 8 9 10 11 12 13 14 15 16 17 18 19 20 21 22
000
FTUS43 KDVN 271700
TAFDBQ
TAF
KDBQ 271733Z 2718/2818 31022G30KT P6SM VCSH BKN035
     FM280100 32012KT P6SM SCT040
     FM281600 01013KT P6SM FEW035=

USA.gov is the U.S. government's official web portal to all federal, state and local government web resources and services.